地図

経路データ

SID SEASON NUMBER BASIN SUBBASIN NAME ISO_TIME NATURE LAT LON WMO_WIND WMO_PRES WMO_AGENCY TRACK_TYPE DIST2LAND LANDFALL IFLAG USA_AGENCY USA_ATCF_ID USA_LAT USA_LON USA_RECORD USA_STATUS USA_WIND USA_PRES USA_SSHS USA_R34_NE USA_R34_SE USA_R34_SW USA_R34_NW USA_R50_NE USA_R50_SE USA_R50_SW USA_R50_NW USA_R64_NE USA_R64_SE USA_R64_SW USA_R64_NW USA_POCI USA_ROCI USA_RMW USA_EYE TOKYO_LAT TOKYO_LON TOKYO_GRADE TOKYO_WIND TOKYO_PRES TOKYO_R50_DIR TOKYO_R50_LONG TOKYO_R50_SHORT TOKYO_R30_DIR TOKYO_R30_LONG TOKYO_R30_SHORT TOKYO_LAND CMA_LAT CMA_LON CMA_CAT CMA_WIND CMA_PRES HKO_LAT HKO_LON HKO_CAT HKO_WIND HKO_PRES NEWDELHI_LAT NEWDELHI_LON NEWDELHI_GRADE NEWDELHI_WIND NEWDELHI_PRES NEWDELHI_CI NEWDELHI_DP NEWDELHI_POCI REUNION_LAT REUNION_LON REUNION_TYPE REUNION_WIND REUNION_PRES REUNION_TNUM REUNION_CI REUNION_RMW REUNION_R34_NE REUNION_R34_SE REUNION_R34_SW REUNION_R34_NW REUNION_R50_NE REUNION_R50_SE REUNION_R50_SW REUNION_R50_NW REUNION_R64_NE REUNION_R64_SE REUNION_R64_SW REUNION_R64_NW BOM_LAT BOM_LON BOM_TYPE BOM_WIND BOM_PRES BOM_TNUM BOM_CI BOM_RMW BOM_R34_NE BOM_R34_SE BOM_R34_SW BOM_R34_NW BOM_R50_NE BOM_R50_SE BOM_R50_SW BOM_R50_NW BOM_R64_NE BOM_R64_SE BOM_R64_SW BOM_R64_NW BOM_ROCI BOM_POCI BOM_EYE BOM_POS_METHOD BOM_PRES_METHOD NADI_LAT NADI_LON NADI_CAT NADI_WIND NADI_PRES WELLINGTON_LAT WELLINGTON_LON WELLINGTON_WIND WELLINGTON_PRES DS824_LAT DS824_LON DS824_STAGE DS824_WIND DS824_PRES TD9636_LAT TD9636_LON TD9636_STAGE TD9636_WIND TD9636_PRES TD9635_LAT TD9635_LON TD9635_WIND TD9635_PRES TD9635_ROCI NEUMANN_LAT NEUMANN_LON NEUMANN_CLASS NEUMANN_WIND NEUMANN_PRES MLC_LAT MLC_LON MLC_CLASS MLC_WIND MLC_PRES USA_GUST BOM_GUST BOM_GUST_PER REUNION_GUST REUNION_GUST_PER USA_SEAHGT USA_SEARAD_NE USA_SEARAD_SE USA_SEARAD_SW USA_SEARAD_NW STORM_SPEED STORM_DIR
2000289N15089 2000 95 NI BB NOT_NAMED 2000-10-14 18:00:00 TS 14.7000 89.0000 main 576 576 O_____________ jtwc_io IO012000 14.7000 89.0000 TD 25 -1 6 260
2000289N15089 2000 95 NI BB NOT_NAMED 2000-10-14 21:00:00 TS 14.6500 88.7125 main 607 607 P_____________ IO012000 14.6500 88.7125 TD 25 -1 6 257
2000289N15089 2000 95 NI BB NOT_NAMED 2000-10-15 00:00:00 TS 14.5750 88.4250 25 1004 newdelhi main 617 610 O___O_________ jtwc_io IO012000 14.6000 88.4000 TD 25 -1 14.5000 88.5000 D 25 1004 1.50000 4 5 257
2000289N15089 2000 95 NI BB NOT_NAMED 2000-10-15 03:00:00 TS 14.5333 88.2000 25 1004 newdelhi main 610 587 P___O_________ IO012000 14.5500 88.0500 TD 25 -1 14.5000 88.5000 D 25 1004 1.50000 4 6 263
2000289N15089 2000 95 NI BB NOT_NAMED 2000-10-15 06:00:00 TS 14.5000 87.8286 25 1002 newdelhi main 580 558 O___O_________ jtwc_io IO012000 14.5000 87.7000 TD 25 -1 14.5000 88.0000 D 25 1002 1.50000 4 7 266
2000289N15089 2000 95 NI BB NOT_NAMED 2000-10-15 09:00:00 TS 14.4750 87.4292 main 552 532 P___P_________ IO012000 14.4499 87.3925 TD 25 -1 14.5001 87.4659 D 25 1001 4 8 266
2000289N15089 2000 95 NI BB NOT_NAMED 2000-10-15 12:00:00 TS 14.4500 87.0500 25 1000 newdelhi main 532 522 O___O_________ jtwc_io IO012000 14.4000 87.1000 TD 25 -1 14.5000 87.0000 D 25 1000 1.50000 4 7 266
2000289N15089 2000 95 NI BB NOT_NAMED 2000-10-15 15:00:00 TS 14.4249 86.7413 main 517 502 P___P_________ IO012000 14.3500 86.7925 TD 25 -1 14.4999 86.6900 D 27 1001 5 5 265
2000289N15089 2000 95 NI BB NOT_NAMED 2000-10-15 18:00:00 TS 14.4000 86.5000 30 1002 newdelhi main 502 487 O___O_________ jtwc_io IO012000 14.3000 86.5000 TD 25 -1 14.5000 86.5000 DD 30 1002 2.00000 6 4 263
2000289N15089 2000 95 NI BB NOT_NAMED 2000-10-15 21:00:00 TS 14.3749 86.3315 main 487 480 P___P_________ IO012000 14.2499 86.2425 TD 30 -1 14.4999 86.4205 DD 30 1001 6 3 262
2000289N15089 2000 95 NI BB NOT_NAMED 2000-10-16 00:00:00 TS 14.3500 86.1500 30 1000 newdelhi main 480 463 O___O_________ jtwc_io IO012000 14.2000 86.0000 TS 35 0 14.5000 86.3000 DD 30 1000 2.00000 6 4 263
2000289N15089 2000 95 NI BB NOT_NAMED 2000-10-16 03:00:00 TS 14.3212 85.8712 30 1000 newdelhi main 463 428 P___O_________ IO012000 14.1425 85.7425 TS 35 0 14.5000 86.0000 DD 30 1000 2.00000 8 6 265
2000289N15089 2000 95 NI BB NOT_NAMED 2000-10-16 06:00:00 TS 14.3000 85.5000 30 1000 newdelhi main 428 403 O___O_________ jtwc_io IO012000 14.1000 85.5000 TS 35 0 14.5000 85.5000 DD 30 1000 2.00000 8 6 270
2000289N15089 2000 95 NI BB NOT_NAMED 2000-10-16 09:00:00 TS 14.3170 85.2249 main 403 395 P___P_________ IO012000 14.1000 85.2850 TS 35 0 14.5340 85.1648 DD 30 999 8 4 270
2000289N15089 2000 95 NI BB NOT_NAMED 2000-10-16 12:00:00 TS 14.3000 85.0500 30 998 newdelhi main 395 387 O___O_________ jtwc_io IO012000 14.1000 85.1000 TS 35 0 14.5000 85.0000 DD 30 998 2.00000 8 3 235
2000289N15089 2000 95 NI BB NOT_NAMED 2000-10-16 15:00:00 TS 14.1499 84.9750 main 402 395 P___P_________ IO012000 14.0500 84.9500 TS 35 0 14.2499 85.0001 DD 30 999 8 3 206
2000289N15089 2000 95 NI BB NOT_NAMED 2000-10-16 18:00:00 TS 14.0000 84.9000 30 1000 newdelhi main 403 388 O___O_________ jtwc_io IO012000 14.0000 84.8000 TS 35 0 14.0000 85.0000 DD 30 1000 2.00000 8 3 240
2000289N15089 2000 95 NI BB NOT_NAMED 2000-10-16 21:00:00 TS 13.9793 84.6665 main 388 374 P___P_________ IO012000 13.9925 84.6000 TS 35 0 13.9660 84.7330 DD 32 999 8 4 270
2000289N15089 2000 95 NI BB NOT_NAMED 2000-10-17 00:00:00 TS 14.0000 84.4500 35 998 newdelhi main 374 368 O___O_________ jtwc_io IO012000 14.0000 84.4000 TS 35 0 14.0000 84.5000 CS 35 998 2.50000 8 3 273
2000289N15089 2000 95 NI BB NOT_NAMED 2000-10-17 03:00:00 TS 13.9962 84.3675 35 998 newdelhi main 368 361 P___O_________ IO012000 13.9925 84.2350 TS 35 0 14.0000 84.5000 CS 35 998 2.50000 8 1 270
2000289N15089 2000 95 NI BB NOT_NAMED 2000-10-17 06:00:00 TS 14.0000 84.3000 35 996 newdelhi main 361 343 O___O_________ jtwc_io IO012000 14.0000 84.1000 TS 35 0 14.0000 84.5000 CS 35 996 2.50000 10 4 273
2000289N15089 2000 95 NI BB NOT_NAMED 2000-10-17 09:00:00 TS 14.0175 83.9962 35 996 newdelhi main 343 343 P___O_________ IO012000 14.0350 83.9925 TS 32 -1 14.0000 84.0000 CS 35 996 2.50000 10 3 278
2000289N15089 2000 95 NI BB NOT_NAMED 2000-10-17 12:00:00 TS 14.0500 83.9500 35 996 newdelhi main 334 328 O___O_________ jtwc_io IO012000 14.1000 83.9000 TD 30 -1 14.0000 84.0000 CS 35 996 2.50000 8 1 309
2000289N15089 2000 95 NI BB NOT_NAMED 2000-10-17 15:00:00 TS 14.0925 83.9037 35 998 newdelhi main 328 328 P___O_________ IO012000 14.1850 83.8075 TD 30 -1 14.0000 84.0000 CS 35 998 2.50000 8 1 317
2000289N15089 2000 95 NI BB NOT_NAMED 2000-10-17 18:00:00 TS 14.1500 83.8500 35 998 newdelhi main 318 313 O___O_________ jtwc_io IO012000 14.3000 83.7000 TD 30 -1 14.0000 84.0000 CS 35 998 2.50000 8 2 317
2000289N15089 2000 95 NI BB NOT_NAMED 2000-10-17 21:00:00 TS 14.2213 83.7787 35 998 newdelhi main 313 267 P___O_________ IO012000 14.4425 83.5575 TD 30 -1 14.0000 84.0000 CS 35 998 2.50000 8 6 316
2000289N15089 2000 95 NI BB NOT_NAMED 2000-10-18 00:00:00 TS 14.5500 83.4500 35 998 newdelhi main 258 252 O___O_________ jtwc_io IO012000 14.6000 83.4000 TD 30 -1 14.5000 83.5000 CS 35 998 2.50000 8 4 292
2000289N15089 2000 95 NI BB NOT_NAMED 2000-10-18 03:00:00 TS 14.3787 83.3787 30 1000 newdelhi main 273 267 P___O_________ IO012000 14.7575 83.2575 TD 30 -1 14.0000 83.5000 DD 30 1000 2.00000 6 2 235
2000289N15089 2000 95 NI BB NOT_NAMED 2000-10-18 06:00:00 TS 14.4500 83.3000 30 1000 newdelhi main 258 248 O___O_________ jtwc_io IO012000 14.9000 83.1000 TD 30 -1 14.0000 83.5000 DD 30 1000 2.00000 6 3 293
2000289N15089 2000 95 NI BB NOT_NAMED 2000-10-18 09:00:00 TS 14.4867 83.1155 main 248 238 P___P_________ IO012000 15.0074 82.9299 TD 27 -1 13.9660 83.3010 DD 30 999 6 4 273
2000289N15089 2000 95 NI BB NOT_NAMED 2000-10-18 12:00:00 TS 14.4714 82.8714 30 998 newdelhi main 238 213 O___O_________ jtwc_io IO012000 15.1000 82.7000 TD 25 -1 14.0000 83.0000 DD 30 998 2.00000 6 5 279
2000289N15089 2000 95 NI BB NOT_NAMED 2000-10-18 15:00:00 TS 14.5593 82.6194 main 213 193 P___P_________ IO012000 15.1977 82.3776 TD 25 -1 14.2401 82.7403 DD 27 999 5 5 292
2000289N15089 2000 95 NI BB NOT_NAMED 2000-10-18 18:00:00 TS 14.6600 82.4000 25 1000 newdelhi main 193 193 O___O_________ jtwc_io IO012000 15.3000 82.0000 TD 25 -1 14.5000 82.5000 D 25 1000 1.50000 4 3 271
2000289N15089 2000 95 NI BB NOT_NAMED 2000-10-18 21:00:00 NR 14.5657 82.2721 main 193 186 ____P_________ IO012000 TD -1 14.5657 82.2721 D 25 1001 4 3 248
2000289N15089 2000 95 NI BB NOT_NAMED 2000-10-19 00:00:00 NR 14.5399 82.0937 main 186 178 ____P_________ 14.5399 82.0937 D 25 1002 4 3 256
2000289N15089 2000 95 NI BB NOT_NAMED 2000-10-19 03:00:00 NR 14.5000 82.0000 25 1004 newdelhi main 178 178 ____O_________ 14.5000 82.0000 D 25 1004 1.50000 4 1 246
2000289N15089 2000 95 NI BB NOT_NAMED 2000-10-19 06:00:00 NR 14.5000 82.0000 25 1004 newdelhi main 178 ____O_________ 14.5000 82.0000 D 25 1004 1.50000 4 0 0

IBTrACS Databaseについて

本データベースは、米国NOAAが公開する1842年以降の世界の熱帯低気圧のベストトラックデータアーカイブInternational Best Track Archive for Climate Stewardship (IBTrACS)を、ウェブで閲覧しやすい形式に変換したものです。

最終更新日:2021-10-21